Northland, Minnesota
Current Conditions -  °F | °C
As of 6:55 PM on Tuesday 21 Oct 2014 (Local Time) from KDLH Reporting Station
Clear Clear  
Wind Chill: 33°   Ceiling: Unl
Heat Index: 40°   Visibility: 10mi
Dew Point: 35°   Wind: 12mph
Humidity: 83%   Direction: 90°E
Pressure: 30.17"   Gusts: NA
Location:  47.068°N, 92.4547°W
Report Text: KDLH 212355Z 09010KT 10SM CLR 04/02 A3017 RMK AO2 SLP231 T00440017 10083 20044 55006
Loading
Personal Weather Stations






























Interactive Weather Map
Tropical Storm Tracking
New forecast layout! Learn more

10-Day Weather Forecast

Advertisements
Track Severe Weather on mobile